Impacts METAR Board
IDs:

KPDX - Portland Intl Arpt, OR, US

Updated at: 0700 UTC 24 Jun 2018
Potential Impact None Slight Moderate High
Time 23/19Z 23/20Z 23/21Z 23/22Z 23/23Z 24/00Z 24/01Z 24/02Z 24/03Z 24/04Z 24/05Z 24/06Z 24/07Z
Temp68 69 71 73 74 74 76 75 74 71 69 68 65
Dewpt51 52 51 50 51 52 53 52 54 54 55 55 55
Altim30.17 30.17 30.16 30.15 30.14 30.12 30.10 30.09 30.09 30.08 30.10 30.09 30.09
VIS10 10 10 10 10 10 10 10 10 10 10 10 10
CIG49 49 44 45 47 -- -- -- -- -- -- -- --
CoverBKNBKNBKNBKNBKNSCTSCTFEWFEWFEWCLRCLRCLR
FltCatVFRVFRVFRVFRVFRVFRVFRVFRVFRVFRVFRVFRVFR
WX--------------------------
WDir3303203202903000340330320320320300320
WSpd5 9 9 10 10 4 8 7 7 11 8 8 6
WGst-- -- -- -- -- -- -- -- -- -- -- -- --
Raw hourly METARs
KPDX 231853Z 33005KT 10SM SCT031 BKN049 20/11 A3017 RMK AO2 SLP217 T02000106
KPDX 231953Z 32009KT 10SM SCT041 BKN049 21/11 A3017 RMK AO2 SLP214 T02060111
KPDX 232053Z 32009KT 10SM BKN044 22/11 A3016 RMK AO2 SLP213 T02170106 58005
KPDX 232153Z 29010KT 10SM BKN045 23/10 A3015 RMK AO2 SLP210 T02280100
KPDX 232253Z 30010KT 10SM BKN047 23/11 A3014 RMK AO2 SLP206 T02330106
KPDX 232353Z VRB04KT 10SM SCT047 23/11 A3012 RMK AO2 SLP200 T02330111 10244 20189 58013
KPDX 240053Z 34008KT 10SM SCT049 24/12 A3010 RMK AO2 SLP193 T02440117
KPDX 240153Z 33007KT 10SM FEW050 24/11 A3009 RMK AO2 SLP190 T02390111
KPDX 240253Z 32007KT 10SM FEW050 23/12 A3009 RMK AO2 SLP190 T02330122 56010
KPDX 240353Z 32011KT 10SM FEW050 FEW250 22/12 A3008 RMK AO2 SLP186 T02170122
KPDX 240453Z 32008KT 10SM CLR 21/13 A3010 RMK AO2 SLP190 T02060128
KPDX 240553Z 30008KT 10SM CLR 20/13 A3009 RMK AO2 SLP189 T02000128 10244 20194 56000
KPDX 240653Z 32006KT 10SM CLR 18/13 A3009 RMK AO2 SLP187 T01830128



Page loaded:  07:11 UTC  |   12:11 AM Pacific  |   01:11 AM Mountain  |   02:11 AM Central  |   03:11 AM Eastern

 

ADVISORIES

FORECASTS

FORECASTS

OBSERVATIONS

USER TOOLS

ABOUT US